createdAt,value
2018-03-25T00:00:33.565Z,67.00
2018-03-25T00:03:01.575Z,66.40
2018-03-25T00:05:29.569Z,66.60
2018-03-25T00:07:58.340Z,68.50
2018-03-25T00:10:26.340Z,68.40
2018-03-25T00:12:55.112Z,70.90
2018-03-25T00:15:23.101Z,70.80
2018-03-25T00:17:51.096Z,70.60
2018-03-25T00:20:19.092Z,71.70
2018-03-25T00:22:47.848Z,73.00
2018-03-25T00:25:15.850Z,72.80
2018-03-25T00:27:45.368Z,71.80
2018-03-25T00:30:13.352Z,71.70
2018-03-25T00:32:41.352Z,71.70
2018-03-25T00:35:10.124Z,70.80
2018-03-25T00:37:38.112Z,70.60
2018-03-25T00:40:06.133Z,71.00
2018-03-25T00:42:34.896Z,71.80
2018-03-25T00:45:02.892Z,71.80
2018-03-25T00:47:31.028Z,71.60
2018-03-25T00:49:58.904Z,71.70
2018-03-25T00:52:26.901Z,72.90
2018-03-25T00:54:54.906Z,73.70
2018-03-25T00:57:22.900Z,72.90
2018-03-25T00:59:50.887Z,72.10
2018-03-25T01:02:18.895Z,72.20
2018-03-25T01:04:47.668Z,73.10
2018-03-25T01:07:15.657Z,73.00
2018-03-25T01:09:43.652Z,73.30
2018-03-25T01:12:12.423Z,74.80
2018-03-25T01:14:40.416Z,74.70
2018-03-25T01:17:08.420Z,75.60
2018-03-25T01:19:37.180Z,79.10
2018-03-25T01:22:05.172Z,79.00
2018-03-25T01:24:33.175Z,78.50
2018-03-25T01:27:01.946Z,77.70
2018-03-25T01:29:29.948Z,77.60
2018-03-25T01:31:58.732Z,77.30
2018-03-25T01:34:26.736Z,77.30
2018-03-25T01:36:55.500Z,76.30
2018-03-25T01:39:23.500Z,76.30
2018-03-25T01:41:51.497Z,75.80
2018-03-25T01:44:19.479Z,75.50
2018-03-25T01:46:47.484Z,75.10
2018-03-25T01:49:16.248Z,75.30
2018-03-25T01:51:44.232Z,75.30
2018-03-25T01:54:12.227Z,75.80
2018-03-25T01:56:40.228Z,76.30
2018-03-25T01:59:08.971Z,76.90
2018-03-25T02:01:36.975Z,76.90
2018-03-25T02:04:04.976Z,76.90
2018-03-25T02:06:32.965Z,76.60
2018-03-25T02:09:00.969Z,76.80
2018-03-25T02:11:29.739Z,77.60
2018-03-25T02:13:57.753Z,77.60
2018-03-25T02:16:25.780Z,77.10
2018-03-25T02:18:53.788Z,76.50
2018-03-25T02:21:21.781Z,76.90
2018-03-25T02:23:50.556Z,76.40
2018-03-25T02:26:18.564Z,76.40
2018-03-25T02:28:47.320Z,77.40
2018-03-25T02:31:15.324Z,77.40
2018-03-25T02:33:43.333Z,77.50
2018-03-25T02:36:12.091Z,77.50
2018-03-25T02:38:40.101Z,77.40
2018-03-25T02:41:08.108Z,77.90
2018-03-25T02:43:36.885Z,81.60
2018-03-25T02:46:04.888Z,81.60
2018-03-25T02:48:33.665Z,81.70
2018-03-25T02:51:01.667Z,81.70
2018-03-25T02:53:30.437Z,81.80
2018-03-25T02:55:58.453Z,81.00
2018-03-25T02:58:27.231Z,78.80
2018-03-25T03:00:55.281Z,78.80
2018-03-25T03:03:24.001Z,79.00
2018-03-25T03:05:51.987Z,78.90
2018-03-25T03:08:19.996Z,79.00
2018-03-25T03:10:48.002Z,80.00
2018-03-25T03:13:15.991Z,80.20
2018-03-25T03:15:44.003Z,78.70
2018-03-25T03:18:12.008Z,79.30
2018-03-25T03:20:39.992Z,80.00
2018-03-25T03:23:09.500Z,81.50
2018-03-25T03:25:37.508Z,81.50
2018-03-25T03:28:06.267Z,82.20
2018-03-25T03:30:34.269Z,81.50
2018-03-25T03:33:02.281Z,80.40
2018-03-25T03:35:31.040Z,78.90
2018-03-25T03:37:59.056Z,78.70
2018-03-25T03:40:27.075Z,78.50
2018-03-25T03:42:55.060Z,78.30
2018-03-25T03:45:23.064Z,79.40
2018-03-25T03:47:51.065Z,81.40
2018-03-25T03:50:19.064Z,81.70
2018-03-25T03:52:47.070Z,82.00
2018-03-25T03:55:15.078Z,81.70
2018-03-25T03:57:43.068Z,81.40
2018-03-25T04:00:11.071Z,81.30
2018-03-25T04:02:39.076Z,82.10
2018-03-25T04:05:07.072Z,83.10
2018-03-25T04:07:35.840Z,83.40
2018-03-25T04:10:03.845Z,83.30
2018-03-25T04:12:31.933Z,82.70
2018-03-25T04:14:59.936Z,83.60
2018-03-25T04:17:27.948Z,82.30
2018-03-25T04:19:55.943Z,82.20
2018-03-25T04:22:23.953Z,82.20
2018-03-25T04:24:53.473Z,83.10
2018-03-25T04:27:21.460Z,83.10
2018-03-25T04:29:50.235Z,83.00
2018-03-25T04:32:18.244Z,82.50
2018-03-25T04:34:46.240Z,82.20
2018-03-25T04:37:15.013Z,83.20
2018-03-25T04:39:43.021Z,83.10
2018-03-25T04:42:11.777Z,82.20
2018-03-25T04:44:40.777Z,82.10
2018-03-25T04:47:08.788Z,81.90
2018-03-25T04:49:36.781Z,81.90
2018-03-25T04:52:04.783Z,82.50
2018-03-25T04:54:33.552Z,82.80
2018-03-25T04:57:01.552Z,82.80
2018-03-25T04:59:29.592Z,83.10
2018-03-25T05:01:57.565Z,84.10
2018-03-25T05:04:25.554Z,84.60
2018-03-25T05:06:53.560Z,84.20
2018-03-25T05:09:21.568Z,83.60
2018-03-25T05:11:50.329Z,85.30
2018-03-25T05:14:18.335Z,85.20
2018-03-25T05:16:46.347Z,85.30
2018-03-25T05:19:15.105Z,84.90
2018-03-25T05:21:43.108Z,84.90
2018-03-25T05:24:11.152Z,85.30
2018-03-25T05:26:39.137Z,85.50
2018-03-25T05:29:07.143Z,85.20
2018-03-25T05:31:35.154Z,85.30
2018-03-25T05:34:03.949Z,85.40
2018-03-25T05:36:32.725Z,84.90
2018-03-25T05:39:00.741Z,84.90
2018-03-25T05:41:29.529Z,84.30
2018-03-25T05:43:58.304Z,85.00
2018-03-25T05:46:26.320Z,84.20
2018-03-25T05:48:55.096Z,85.50
2018-03-25T05:51:23.094Z,85.50
2018-03-25T05:53:51.880Z,85.70
2018-03-25T05:56:19.872Z,85.60
2018-03-25T05:58:49.404Z,85.30
2018-03-25T06:01:18.191Z,85.00
2018-03-25T06:03:46.176Z,84.90
2018-03-25T06:06:14.175Z,84.80
2018-03-25T06:08:42.948Z,83.80
2018-03-25T06:11:10.936Z,83.60
2018-03-25T06:13:38.948Z,83.50
2018-03-25T06:16:07.736Z,82.60
2018-03-25T06:18:35.725Z,82.40
2018-03-25T06:21:04.496Z,80.90
2018-03-25T06:23:33.485Z,80.70
2018-03-25T06:26:01.464Z,80.80
2018-03-25T06:28:29.471Z,81.20
2018-03-25T06:30:57.483Z,81.40
2018-03-25T06:33:26.227Z,81.50
2018-03-25T06:35:54.240Z,81.50
2018-03-25T06:38:22.239Z,81.30
2018-03-25T06:40:50.996Z,80.90
2018-03-25T06:43:19.016Z,80.90
2018-03-25T06:45:47.016Z,80.80
2018-03-25T06:48:15.796Z,78.70
2018-03-25T06:50:43.800Z,78.70
2018-03-25T06:53:12.576Z,77.90
2018-03-25T06:55:40.571Z,77.90
2018-03-25T06:58:09.341Z,76.60
2018-03-25T07:00:37.344Z,76.60
2018-03-25T07:03:05.341Z,78.20
2018-03-25T07:05:34.113Z,78.70
2018-03-25T07:08:02.116Z,78.70
2018-03-25T07:10:30.120Z,76.80
2018-03-25T07:12:58.910Z,75.70
2018-03-25T07:15:27.685Z,75.20
2018-03-25T07:17:55.695Z,75.20
2018-03-25T07:20:24.465Z,73.70
2018-03-25T07:22:52.464Z,73.60
2018-03-25T07:25:21.225Z,72.10
2018-03-25T07:27:49.223Z,71.90
2018-03-25T07:30:17.231Z,72.20
2018-03-25T07:32:45.993Z,71.20
2018-03-25T07:35:13.997Z,71.20
2018-03-25T07:37:42.002Z,70.60
2018-03-25T07:40:10.756Z,66.90
2018-03-25T07:42:38.756Z,66.90
2018-03-25T07:45:06.765Z,66.60
2018-03-25T07:47:35.528Z,66.80
2018-03-25T07:50:03.598Z,66.70
2018-03-25T07:52:31.537Z,74.40
2018-03-25T07:55:00.302Z,70.20
2018-03-25T07:57:28.313Z,70.20
2018-03-25T07:59:56.333Z,66.80
2018-03-25T08:02:24.328Z,63.70
2018-03-25T08:04:52.336Z,62.90
2018-03-25T08:07:20.352Z,62.70
2018-03-25T08:09:49.099Z,62.60
2018-03-25T08:12:17.117Z,62.50
2018-03-25T08:14:45.108Z,61.20
2018-03-25T08:17:13.868Z,60.40
2018-03-25T08:19:41.877Z,60.30
2018-03-25T08:22:09.879Z,59.00
2018-03-25T08:24:38.630Z,58.50
2018-03-25T08:27:06.631Z,58.50
2018-03-25T08:29:34.650Z,59.30
2018-03-25T08:32:03.413Z,58.40
2018-03-25T08:34:31.426Z,57.70
2018-03-25T08:37:00.197Z,55.90
2018-03-25T08:39:28.192Z,55.90
2018-03-25T08:41:56.212Z,55.30
2018-03-25T08:44:24.211Z,55.30
2018-03-25T08:46:52.208Z,54.00
2018-03-25T08:49:20.211Z,51.80
2018-03-25T08:51:48.220Z,51.80
2018-03-25T08:54:16.984Z,51.60
2018-03-25T08:56:44.996Z,51.50
2018-03-25T08:59:13.005Z,50.90
2018-03-25T09:01:40.993Z,50.90
2018-03-25T09:04:09.004Z,52.00
2018-03-25T09:06:37.044Z,51.10
2018-03-25T09:09:05.000Z,51.50
2018-03-25T09:11:33.004Z,53.00
2018-03-25T09:14:01.790Z,49.00
2018-03-25T09:16:29.784Z,49.00
2018-03-25T09:18:58.565Z,47.80
2018-03-25T09:21:26.624Z,47.70
2018-03-25T09:23:54.625Z,48.50
2018-03-25T09:26:22.629Z,48.40
2018-03-25T09:28:50.636Z,47.00
2018-03-25T09:31:18.630Z,46.60
2018-03-25T09:33:46.640Z,46.40
2018-03-25T09:36:14.644Z,45.50
2018-03-25T09:38:42.640Z,46.40
2018-03-25T09:41:10.653Z,47.90
2018-03-25T09:43:38.658Z,46.10
2018-03-25T09:46:06.657Z,44.80
2018-03-25T09:48:34.707Z,48.00
2018-03-25T09:51:02.705Z,44.30
2018-03-25T09:53:30.700Z,44.60
2018-03-25T09:55:58.700Z,43.50
2018-03-25T09:58:26.738Z,42.40
2018-03-25T10:01:00.352Z,42.10
2018-03-25T10:03:32.320Z,44.00
2018-03-25T10:06:01.084Z,41.20
2018-03-25T10:08:29.091Z,41.10
2018-03-25T10:10:57.853Z,46.10
2018-03-25T10:13:25.861Z,45.90
2018-03-25T10:15:53.868Z,42.80
2018-03-25T10:18:21.869Z,39.20
2018-03-25T10:20:49.872Z,39.30
2018-03-25T10:23:17.877Z,41.80
2018-03-25T10:25:47.557Z,41.20
2018-03-25T10:28:15.568Z,41.40
2018-03-25T10:30:43.572Z,41.80
2018-03-25T10:33:11.568Z,38.80
2018-03-25T10:35:40.344Z,38.40
2018-03-25T10:38:08.381Z,38.30
2018-03-25T10:40:36.376Z,41.10
2018-03-25T10:43:04.388Z,40.00
2018-03-25T10:45:32.401Z,40.30
2018-03-25T10:48:01.173Z,35.60
2018-03-25T10:50:29.194Z,35.50
2018-03-25T10:52:57.968Z,33.30
2018-03-25T10:55:26.733Z,35.30
2018-03-25T10:57:54.770Z,35.40
2018-03-25T11:00:22.751Z,37.20
2018-03-25T11:02:51.520Z,33.30
2018-03-25T11:05:19.532Z,33.30
2018-03-25T11:07:48.316Z,35.50
2018-03-25T11:10:16.313Z,35.30
2018-03-25T11:12:44.333Z,33.30
2018-03-25T11:15:12.340Z,31.50
2018-03-25T11:17:40.344Z,31.70
2018-03-25T11:20:08.352Z,32.80
2018-03-25T11:22:37.144Z,32.60
2018-03-25T11:25:05.140Z,32.40
2018-03-25T11:27:33.916Z,32.50
2018-03-25T11:30:01.931Z,32.50
2018-03-25T11:32:30.688Z,30.00
2018-03-25T11:34:58.710Z,30.00
2018-03-25T11:37:26.741Z,31.60
2018-03-25T11:39:54.732Z,33.80
2018-03-25T11:42:22.748Z,29.70
2018-03-25T11:44:51.525Z,29.70
2018-03-25T11:47:19.516Z,29.70
2018-03-25T11:49:47.537Z,30.80
2018-03-25T11:52:15.547Z,29.60
2018-03-25T11:54:43.532Z,28.20
2018-03-25T11:57:11.584Z,28.30
2018-03-25T11:59:39.596Z,28.30
2018-03-25T12:02:09.331Z,29.90
2018-03-25T12:04:37.360Z,30.00
2018-03-25T12:07:06.256Z,30.00
2018-03-25T12:09:35.020Z,28.90
2018-03-25T12:12:03.034Z,28.80
2018-03-25T12:14:31.040Z,28.20
2018-03-25T12:16:59.065Z,29.90
2018-03-25T12:19:27.075Z,28.90
2018-03-25T12:21:55.086Z,29.90
2018-03-25T12:24:23.844Z,29.00
2018-03-25T12:26:51.868Z,28.90
2018-03-25T12:29:20.644Z,29.30
2018-03-25T12:31:48.640Z,29.20
2018-03-25T12:34:17.543Z,27.50
2018-03-25T12:36:46.324Z,27.10
2018-03-25T12:39:14.321Z,27.10
2018-03-25T12:41:42.346Z,28.10
2018-03-25T12:44:10.361Z,26.90
2018-03-25T12:46:38.358Z,28.10
2018-03-25T12:49:06.368Z,28.40
2018-03-25T12:51:35.147Z,26.60
2018-03-25T12:54:03.145Z,26.60
2018-03-25T12:56:31.928Z,26.90
2018-03-25T12:58:59.940Z,26.80
2018-03-25T13:01:27.954Z,27.80
2018-03-25T13:03:55.960Z,28.10
2018-03-25T13:06:23.973Z,27.40
2018-03-25T13:08:52.740Z,27.40
2018-03-25T13:11:21.760Z,27.30
2018-03-25T13:13:49.768Z,27.80
2018-03-25T13:16:18.528Z,27.90
2018-03-25T13:18:46.545Z,28.00
2018-03-25T13:21:15.322Z,28.20
2018-03-25T13:23:43.324Z,28.10
2018-03-25T13:26:11.332Z,27.70
2018-03-25T13:28:39.343Z,27.40
2018-03-25T13:31:07.344Z,28.90
2018-03-25T13:33:35.356Z,28.30
2018-03-25T13:36:03.364Z,26.10
2018-03-25T13:38:31.365Z,26.10
2018-03-25T13:40:59.380Z,24.60
2018-03-25T13:43:27.388Z,24.70
2018-03-25T13:45:56.150Z,24.20
2018-03-25T13:48:24.161Z,24.10
2018-03-25T13:50:52.176Z,25.20
2018-03-25T13:53:20.173Z,27.00
2018-03-25T13:55:48.188Z,26.00
2018-03-25T13:58:16.204Z,25.60
2018-03-25T14:00:44.969Z,26.70
2018-03-25T14:03:12.983Z,26.60
2018-03-25T14:05:40.992Z,25.70
2018-03-25T14:08:08.992Z,23.80
2018-03-25T14:10:37.000Z,23.60
2018-03-25T14:13:05.016Z,22.40
2018-03-25T14:15:33.796Z,23.50
2018-03-25T14:18:03.320Z,24.70
2018-03-25T14:20:31.332Z,24.00
2018-03-25T14:23:00.112Z,24.30
2018-03-25T14:25:28.121Z,24.20
2018-03-25T14:27:56.142Z,24.40
2018-03-25T14:30:24.148Z,26.20
2018-03-25T14:32:52.172Z,25.30
2018-03-25T14:35:20.184Z,25.50
2018-03-25T14:37:48.216Z,24.30
2018-03-25T14:40:16.996Z,22.40
2018-03-25T14:42:45.017Z,22.30
2018-03-25T14:45:13.020Z,22.50
2018-03-25T14:47:41.041Z,22.80
2018-03-25T14:50:09.056Z,22.30
2018-03-25T14:52:37.825Z,22.50
2018-03-25T14:55:05.840Z,22.50
2018-03-25T14:57:34.624Z,22.30
2018-03-25T15:00:02.638Z,22.20
2018-03-25T15:02:30.651Z,22.50
2018-03-25T15:04:58.672Z,21.20
2018-03-25T15:07:26.678Z,21.40
2018-03-25T15:09:55.457Z,23.10
2018-03-25T15:12:23.548Z,23.10
2018-03-25T15:14:51.472Z,22.90
2018-03-25T15:17:19.484Z,22.00
2018-03-25T15:19:48.489Z,21.40
2018-03-25T15:22:16.492Z,23.00
2018-03-25T15:24:44.512Z,21.40
2018-03-25T15:27:12.528Z,23.20
2018-03-25T15:29:41.529Z,21.90
2018-03-25T15:32:09.552Z,22.30
2018-03-25T15:34:37.568Z,22.90
2018-03-25T15:37:05.569Z,23.70
2018-03-25T15:39:33.579Z,22.60
2018-03-25T15:42:01.613Z,23.00
2018-03-25T15:44:30.396Z,23.90
2018-03-25T15:46:59.176Z,24.20
2018-03-25T15:49:27.197Z,24.10
2018-03-25T15:51:55.217Z,24.70
2018-03-25T15:54:23.232Z,24.70
2018-03-25T15:56:51.245Z,24.50
2018-03-25T15:59:19.244Z,24.70
2018-03-25T16:01:47.252Z,25.50
2018-03-25T16:04:15.260Z,26.40
2018-03-25T16:06:43.252Z,26.60
2018-03-25T16:09:11.288Z,26.70
2018-03-25T16:11:39.285Z,26.50
2018-03-25T16:14:07.285Z,26.30
2018-03-25T16:16:35.295Z,27.30
2018-03-25T16:19:04.064Z,26.60
2018-03-25T16:21:32.070Z,26.50
2018-03-25T16:24:00.142Z,27.10
2018-03-25T16:26:28.147Z,28.80
2018-03-25T16:28:56.912Z,28.50
2018-03-25T16:31:24.921Z,28.40
2018-03-25T16:33:53.691Z,29.10
2018-03-25T16:36:21.762Z,28.50
2018-03-25T16:38:49.714Z,28.20
2018-03-25T16:41:17.728Z,28.70
2018-03-25T16:43:45.724Z,29.40
2018-03-25T16:46:13.736Z,28.50
2018-03-25T16:48:42.513Z,28.90
2018-03-25T16:51:10.508Z,28.80
2018-03-25T16:53:40.024Z,29.20
2018-03-25T16:56:09.004Z,29.20
2018-03-25T16:58:37.024Z,29.20
2018-03-25T17:01:05.053Z,29.40
2018-03-25T17:03:33.060Z,29.70
2018-03-25T17:06:01.059Z,29.80
2018-03-25T17:08:29.115Z,29.90
2018-03-25T17:10:57.848Z,30.50
2018-03-25T17:13:25.872Z,30.50
2018-03-25T17:15:54.636Z,30.00
2018-03-25T17:18:22.650Z,30.00
2018-03-25T17:20:51.576Z,30.50
2018-03-25T17:23:19.585Z,31.50
2018-03-25T17:25:47.593Z,31.90
2018-03-25T17:28:15.588Z,32.20
2018-03-25T17:30:44.362Z,33.70
2018-03-25T17:33:12.368Z,33.70
2018-03-25T17:35:41.141Z,34.60
2018-03-25T17:38:09.136Z,34.50
2018-03-25T17:40:37.148Z,36.80
2018-03-25T17:43:05.144Z,36.70
2018-03-25T17:45:33.149Z,37.30
2018-03-25T17:48:01.163Z,36.50
2018-03-25T17:50:29.164Z,36.40
2018-03-25T17:52:57.951Z,40.50
2018-03-25T17:55:25.961Z,40.40
2018-03-25T17:57:53.957Z,39.40
2018-03-25T18:00:22.880Z,39.00
2018-03-25T18:02:50.884Z,39.70
2018-03-25T18:05:18.874Z,40.10
2018-03-25T18:07:46.880Z,40.60
2018-03-25T18:10:15.728Z,41.90
2018-03-25T18:12:43.692Z,41.20
2018-03-25T18:15:11.706Z,41.70
2018-03-25T18:17:39.706Z,42.20
2018-03-25T18:20:07.693Z,42.80
2018-03-25T18:22:35.744Z,43.10
2018-03-25T18:25:03.752Z,43.20
2018-03-25T18:27:31.776Z,43.60
2018-03-25T18:29:59.784Z,43.70
2018-03-25T18:32:27.790Z,43.80
2018-03-25T18:34:56.092Z,44.80
2018-03-25T18:37:24.096Z,44.70
2018-03-25T18:39:52.915Z,47.20
2018-03-25T18:42:20.857Z,46.60
2018-03-25T18:44:48.864Z,47.10
2018-03-25T18:47:17.636Z,47.20
2018-03-25T18:49:45.675Z,47.20
2018-03-25T18:52:13.680Z,47.20
2018-03-25T18:54:41.679Z,47.10
2018-03-25T18:57:09.678Z,47.50
2018-03-25T18:59:37.900Z,47.70
2018-03-25T19:02:06.673Z,48.20
2018-03-25T19:04:34.693Z,48.10
2018-03-25T19:07:02.704Z,47.90
2018-03-25T19:09:30.710Z,48.30
2018-03-25T19:11:58.696Z,48.60
2018-03-25T19:14:26.714Z,49.70
2018-03-25T19:16:55.484Z,50.30
2018-03-25T19:19:23.475Z,50.90
2018-03-25T19:21:51.485Z,51.60
2018-03-25T19:24:20.241Z,51.60
2018-03-25T19:26:48.228Z,51.60
2018-03-25T19:29:16.241Z,52.30
2018-03-25T19:31:45.000Z,52.20
2018-03-25T19:34:12.984Z,52.10
2018-03-25T19:36:41.009Z,53.10
2018-03-25T19:39:09.780Z,52.40
2018-03-25T19:41:37.768Z,52.40
2018-03-25T19:44:05.778Z,51.80
2018-03-25T19:46:34.548Z,51.50
2018-03-25T19:49:02.540Z,51.50
2018-03-25T19:51:30.549Z,52.10
2018-03-25T19:53:59.312Z,53.20
2018-03-25T19:56:28.813Z,53.40
2018-03-25T19:58:57.652Z,53.80
2018-03-25T20:01:25.663Z,53.80
2018-03-25T20:03:53.649Z,55.00
2018-03-25T20:06:21.660Z,55.20
2018-03-25T20:08:49.661Z,55.30
2018-03-25T20:11:17.650Z,55.30
2018-03-25T20:13:45.653Z,55.90
2018-03-25T20:16:14.420Z,56.60
2018-03-25T20:18:42.417Z,56.50
2018-03-25T20:21:10.424Z,56.60
2018-03-25T20:23:39.192Z,57.70
2018-03-25T20:26:07.181Z,57.70
2018-03-25T20:28:35.179Z,57.90
2018-03-25T20:31:03.956Z,58.10
2018-03-25T20:33:31.956Z,58.10
2018-03-25T20:35:59.967Z,58.70
2018-03-25T20:38:27.988Z,58.80
2018-03-25T20:40:55.982Z,58.80
2018-03-25T20:43:23.984Z,58.70
2018-03-25T20:45:51.988Z,58.60
2018-03-25T20:48:19.980Z,58.70
2018-03-25T20:50:47.983Z,58.60
2018-03-25T20:53:15.988Z,58.60
2018-03-25T20:55:43.977Z,59.20
2018-03-25T20:58:11.976Z,59.20
2018-03-25T21:00:39.981Z,59.50
2018-03-25T21:03:08.731Z,59.60
2018-03-25T21:05:37.124Z,59.50
2018-03-25T21:08:05.129Z,60.00
2018-03-25T21:10:33.117Z,60.30
2018-03-25T21:13:01.119Z,61.00
2018-03-25T21:15:29.884Z,60.70
2018-03-25T21:17:57.876Z,60.60
2018-03-25T21:20:25.900Z,61.60
2018-03-25T21:22:53.896Z,63.20
2018-03-25T21:25:21.885Z,65.90
2018-03-25T21:27:49.892Z,66.90
2018-03-25T21:30:17.900Z,66.80
2018-03-25T21:32:45.888Z,66.90
2018-03-25T21:35:14.657Z,66.10
2018-03-25T21:37:42.665Z,65.10
2018-03-25T21:40:10.656Z,65.60
2018-03-25T21:42:39.432Z,67.10
2018-03-25T21:45:07.432Z,67.00
2018-03-25T21:47:35.426Z,68.70
2018-03-25T21:50:04.202Z,69.40
2018-03-25T21:52:32.201Z,69.30
2018-03-25T21:55:00.190Z,69.60
2018-03-25T21:57:28.960Z,66.80
2018-03-25T21:59:56.965Z,66.80
2018-03-25T22:02:25.720Z,66.30
2018-03-25T22:04:53.716Z,65.80
2018-03-25T22:07:21.729Z,65.40
2018-03-25T22:09:49.720Z,65.70
2018-03-25T22:12:18.498Z,66.10
2018-03-25T22:14:46.502Z,66.10
2018-03-25T22:17:14.480Z,65.90
2018-03-25T22:19:43.244Z,70.30
2018-03-25T22:22:11.244Z,70.20
2018-03-25T22:24:43.904Z,73.40
2018-03-25T22:27:11.918Z,74.70
2018-03-25T22:29:39.904Z,75.50
2018-03-25T22:32:07.947Z,76.00
2018-03-25T22:34:35.897Z,74.60
2018-03-25T22:37:04.653Z,75.00
2018-03-25T22:39:32.656Z,74.90
2018-03-25T22:42:00.656Z,75.00
2018-03-25T22:44:29.430Z,74.90
2018-03-25T22:46:57.432Z,74.80
2018-03-25T22:49:25.444Z,74.80
2018-03-25T22:51:54.184Z,74.70
2018-03-25T22:54:22.189Z,74.70
2018-03-25T22:56:50.203Z,75.50
2018-03-25T22:59:18.944Z,73.40
2018-03-25T23:01:46.945Z,74.10
2018-03-25T23:04:14.949Z,73.00
2018-03-25T23:06:43.705Z,72.30
2018-03-25T23:09:11.709Z,71.60
2018-03-25T23:11:39.712Z,71.20
2018-03-25T23:14:08.472Z,71.40
2018-03-25T23:16:36.476Z,71.40
2018-03-25T23:19:04.484Z,71.40
2018-03-25T23:21:33.252Z,70.90
2018-03-25T23:24:01.256Z,70.90
2018-03-25T23:26:29.258Z,71.70
2018-03-25T23:28:58.032Z,73.50
2018-03-25T23:31:26.036Z,73.40
2018-03-25T23:33:54.808Z,73.10
2018-03-25T23:36:22.803Z,73.00
2018-03-25T23:38:50.797Z,72.50
2018-03-25T23:41:19.568Z,73.30
2018-03-25T23:43:47.561Z,73.30
2018-03-25T23:46:17.069Z,76.30
2018-03-25T23:48:45.081Z,76.30
2018-03-25T23:51:13.838Z,78.70
2018-03-25T23:53:41.836Z,78.50
2018-03-25T23:56:09.840Z,78.60
2018-03-25T23:58:37.828Z,79.40
